Latest Weather Observations for Canberra

IDN60901

Issued at 6:51 pm EST Sunday 25 September 2016 (issued every 10 minutes, with the page automatically refreshed every 10 minutes)

About weather observations | Map of Canberra area stations | Latest observations for Canberra area | Other Formats
Station Details ID: 070351 Name: CANBERRA AIRPORT Lat: -35.31 Lon: 149.20 Height: 577.05 m
Data from the previous 72 hours. | See also: Recent months at Canberra
Date/Time
EST
Temp
°C
App
Temp
°C
Dew
Point
°C
Rel
Hum
%
Delta-T
°C
Wind Press
QNH
hPa
Press
MSL
hPa
Rain since
9am
mm
Dir  Spd
km/h
Gust
km/h
Spd
kts
Gust
kts
25/06:30pm 11.9 8.2 6.4 69 2.7 NNW 15 24 8 13 1009.3 1009.3 0.0
25/06:00pm 13.4 9.5 7.2 66 3.1 WNW 17 20 9 11 1008.6 1008.7 0.0
25/05:30pm 14.5 11.1 7.5 63 3.6 W 15 17 8 9 1008.4 1008.4 0.0
25/05:00pm 13.6 9.2 7.4 66 3.1 W 20 28 11 15 1008.3 1008.3 0.0
25/04:30pm 14.8 9.7 7.6 62 3.7 WNW 24 32 13 17 1007.8 1007.8 0.0
25/04:00pm 16.2 10.5 6.6 53 4.9 WNW 26 35 14 19 1007.5 1007.5 0.0
25/03:30pm 16.4 11.0 6.5 52 5.0 WNW 24 33 13 18 1007.2 1007.2 0.0
25/03:00pm 16.2 11.2 6.6 53 4.9 WNW 22 30 12 16 1007.1 1007.1 0.0
25/02:30pm 17.5 12.0 7.5 52 5.2 WNW 26 35 14 19 1006.8 1006.8 0.0
25/02:00pm 17.1 11.4 6.6 50 5.4 W 26 39 14 21 1006.8 1006.8 0.0
25/01:30pm 16.8 11.6 7.4 54 4.8 W 24 37 13 20 1007.0 1006.9 0.0
25/01:00pm 16.1 10.4 6.8 54 4.7 W 26 39 14 21 1006.8 1006.8 0.0
25/12:30pm 17.3 11.9 6.5 49 5.5 W 24 33 13 18 1006.7 1006.7 0.0
25/12:00pm 17.0 11.6 6.2 49 5.5 W 24 33 13 18 1006.8 1006.8 0.0
25/11:30am 16.2 10.8 6.3 52 5.0 WNW 24 32 13 17 1006.8 1006.8 0.0
25/11:00am 16.3 12.7 8.3 59 4.2 NW 17 26 9 14 1007.0 1006.9 0.0
25/10:30am 15.7 11.7 8.2 61 3.9 NW 19 30 10 16 1007.1 1007.1 0.0
25/10:00am 14.8 11.5 6.6 58 4.1 WNW 13 24 7 13 1007.2 1007.2 0.0
25/09:30am 14.7 11.1 8.4 66 3.3 NW 17 26 9 14 1007.3 1007.3 0.0
25/09:00am 14.0 10.3 8.0 67 3.1 NW 17 28 9 15 1007.3 1007.3 0.0
25/08:30am 12.8 8.5 7.7 71 2.6 NW 20 28 11 15 1007.4 1007.4 0.0
25/08:00am 12.0 7.8 7.5 74 2.3 NW 19 26 10 14 1007.3 1007.3 0.0
25/07:30am 11.6 7.4 7.5 76 2.0 NNW 19 24 10 13 1007.3 1007.3 0.0
25/07:00am 10.9 7.2 7.8 81 1.6 NNW 17 20 9 11 1007.1 1007.1 0.0
25/06:30am 10.8 7.8 7.7 81 1.5 NNW 13 17 7 9 1007.1 1007.1 0.0
25/06:00am 10.5 7.5 7.7 83 1.4 N 13 17 7 9 1007.1 1007.1 0.0
25/05:30am 10.5 6.4 7.7 83 1.4 NNW 19 22 10 12 1006.8 1006.8 0.0
25/05:00am 10.7 7.6 7.4 80 1.6 NW 13 15 7 8 1006.7 1006.7 0.0
25/04:30am 10.7 7.7 7.8 82 1.4 NW 13 15 7 8 1006.8 1006.8 0.0
25/04:00am 10.3 7.7 7.7 84 1.3 NNW 11 15 6 8 1006.8 1006.8 0.0
25/03:30am 11.0 8.4 7.9 81 1.6 NW 11 13 6 7 1006.8 1006.8 0.0
25/03:00am 11.1 8.5 7.8 80 1.7 N 11 11 6 6 1007.0 1006.9 0.0
25/02:30am 11.2 9.0 7.7 79 1.7 NW 9 13 5 7 1007.2 1007.2 0.0
25/02:00am 11.2 9.3 7.7 79 1.8 NW 7 9 4 5 1007.4 1007.4 0.0
25/01:30am 11.1 9.4 7.6 79 1.7 N 6 7 3 4 1007.6 1007.6 0.0
25/01:00am 11.2 9.4 8.1 81 1.6 N 7 9 4 5 1008.0 1008.0 0.0
25/12:30am 11.0 9.4 8.1 82 1.5 N 6 7 3 4 1008.2 1008.2 0.0
25/12:00am 11.6 9.5 8.1 79 1.8 N 9 11 5 6 1008.2 1008.2 0.0
 
Date/Time
EST
Temp
°C
App
Temp
°C
Dew
Point
°C
Rel
Hum
%
Delta-T
°C
Wind Press
QNH
hPa
Press
MSL
hPa
Rain since
9am
mm
Dir  Spd
km/h
Gust
km/h
Spd
kts
Gust
kts
24/11:30pm 11.4 9.6 8.1 80 1.7 N 7 9 4 5 1008.5 1008.6 0.0
24/11:00pm 11.3 9.1 8.0 80 1.7 NNW 9 11 5 6 1008.5 1008.6 0.0
24/10:30pm 11.7 8.9 8.4 80 1.7 NNW 13 13 7 7 1008.8 1008.8 0.0
24/10:00pm 11.7 8.9 8.4 80 1.7 N 13 15 7 8 1009.0 1009.0 0.0
24/09:30pm 11.9 9.1 8.6 80 1.7 NNW 13 15 7 8 1009.0 1009.0 0.0
24/09:00pm 11.7 9.2 8.4 80 1.7 NNW 11 13 6 7 1009.0 1009.0 0.0
24/08:30pm 12.2 9.3 8.3 77 2.0 NW 13 13 7 7 1009.0 1009.0 0.0
24/08:00pm 12.8 10.3 8.3 74 2.3 N 11 15 6 8 1009.1 1009.1 0.0
24/07:30pm 13.3 10.5 8.4 72 2.5 NNW 13 17 7 9 1009.0 1009.0 0.0
24/07:00pm 13.6 10.4 8.4 71 2.7 NW 15 17 8 9 1009.0 1009.0 0.0
24/06:30pm 13.9 10.3 8.3 69 2.9 NW 17 19 9 10 1009.0 1009.0 0.0
24/06:00pm 15.2 10.7 8.4 64 3.6 NW 22 28 12 15 1008.9 1008.9 0.0
24/05:30pm 15.6 11.5 8.8 64 3.6 NNW 20 26 11 14 1008.5 1008.6 0.0
24/05:00pm 16.4 11.6 8.9 61 4.0 NW 24 28 13 15 1008.2 1008.2 0.0
24/04:30pm 17.3 13.5 9.0 58 4.4 NW 19 22 10 12 1008.3 1008.3 0.0
24/04:00pm 16.6 11.2 7.8 56 4.6 NW 26 33 14 18 1008.4 1008.4 0.0
24/03:30pm 18.2 14.1 8.7 54 5.1 NW 20 30 11 16 1008.6 1008.7 0.0
24/03:00pm 18.3 14.0 9.4 56 4.8 NW 22 33 12 18 1008.6 1008.7 0.0
24/02:30pm 17.6 13.4 8.2 54 4.9 NNW 20 28 11 15 1008.8 1008.8 0.0
24/02:00pm 18.1 14.4 7.8 51 5.4 NW 17 24 9 13 1008.9 1008.9 0.0
24/01:30pm 18.0 13.2 7.4 50 5.5 NNW 22 32 12 17 1009.4 1009.4 0.0
24/01:00pm 17.4 13.2 8.3 55 4.8 NW 20 30 11 16 1009.9 1009.9 0.0
24/12:30pm 17.3 13.3 8.2 55 4.8 NW 19 28 10 15 1010.3 1010.4 0.0
24/12:00pm 17.8 14.0 9.2 57 4.6 NW 19 28 10 15 1010.5 1010.6 0.0
24/11:30am 17.7 13.9 7.7 52 5.2 WNW 17 24 9 13 1010.9 1010.9 0.0
24/11:00am 16.5 13.9 9.2 62 3.9 NNW 13 19 7 10 1011.4 1011.4 0.0
24/10:30am 15.4 13.0 8.6 64 3.6 N 11 15 6 8 1012.0 1012.1 0.0
24/10:00am 14.9 13.5 8.8 67 3.2 N 6 13 3 7 1012.6 1012.6 0.0
24/09:30am 13.3 11.6 7.7 69 2.8 N 6 9 3 5 1012.9 1012.9 0.0
24/09:00am 12.3 10.7 8.0 75 2.2 NW 6 9 3 5 1013.3 1013.4 0.0
24/08:30am 10.3 8.9 5.7 73 2.2 NE 2 7 1 4 1013.5 1013.6 0.0
24/08:00am 9.2 6.9 5.6 78 1.7 SSW 7 9 4 5 1013.7 1013.8 0.0
24/07:30am 8.1 7.1 5.7 85 1.1 CALM 0 0 0 0 1013.6 1013.7 0.0
24/07:00am 5.5 3.7 5.4 99 0.0 NNW 4 7 2 4 1013.6 1013.7 0.0
24/06:30am 3.7 1.1 3.4 98 0.1 NE 6 9 3 5 1013.5 1013.6 0.0
24/06:00am 3.0 1.1 2.9 99 0.0 ESE 2 7 1 4 1013.2 1013.3 0.0
24/05:30am 3.6 0.9 3.5 99 0.0 E 7 9 4 5 1013.0 1013.1 0.0
24/05:24am 3.1 0.3 3.0 99 0.0 E 7 9 4 5 1013.0 1013.1 0.0
24/05:00am 3.1 0.5 3.0 99 0.0 N 6 7 3 4 1012.7 1012.7 0.0
24/04:30am 3.2 0.6 3.1 99 0.0 SE 6 9 3 5 1012.7 1012.7 0.0
24/04:00am 4.5 2.5 4.4 99 0.0 SE 4 9 2 5 1012.8 1012.8 0.0
24/03:30am 4.3 3.0 4.0 98 0.1 CALM 0 0 0 0 1012.9 1012.9 0.0
24/03:00am 4.9 3.7 4.8 99 0.0 CALM 0 0 0 0 1013.1 1013.2 0.0
24/02:30am 4.4 2.0 4.1 98 0.1 NNW 6 7 3 4 1013.2 1013.3 0.0
24/02:00am 5.8 2.3 5.4 97 0.2 ESE 13 15 7 8 1013.2 1013.3 0.0
24/01:30am 5.6 2.5 5.5 99 0.0 ESE 11 13 6 7 1013.3 1013.4 0.0
24/01:00am 4.9 2.3 4.3 96 0.3 SE 7 9 4 5 1013.3 1013.4 0.0
24/12:30am 5.5 4.3 4.5 93 0.4 CALM 0 4 0 2 1013.3 1013.4 0.0
24/12:00am 6.4 5.0 5.5 94 0.4 N 2 7 1 4 1013.4 1013.5 0.0
 
Date/Time
EST
Temp
°C
App
Temp
°C
Dew
Point
°C
Rel
Hum
%
Delta-T
°C
Wind Press
QNH
hPa
Press
MSL
hPa
Rain since
9am
mm
Dir  Spd
km/h
Gust
km/h
Spd
kts
Gust
kts
23/11:30pm 6.9 5.9 5.5 91 0.6 CALM 0 0 0 0 1013.6 1013.7 0.0
23/11:00pm 6.7 5.7 5.5 92 0.6 CALM 0 4 0 2 1013.7 1013.8 0.0
23/10:30pm 6.8 4.4 5.3 90 0.7 E 7 9 4 5 1013.9 1014.0 0.0
23/10:00pm 6.7 4.4 5.5 92 0.6 E 7 9 4 5 1013.8 1013.9 0.0
23/09:30pm 7.0 4.3 5.5 90 0.7 ESE 9 9 5 5 1013.8 1013.9 0.0
23/09:00pm 9.7 8.5 6.6 81 1.5 NE 2 6 1 3 1013.8 1013.9 0.0
23/08:30pm 9.3 6.7 6.0 80 1.6 SE 9 11 5 6 1013.7 1013.8 0.0
23/08:00pm 9.8 7.3 6.5 80 1.6 SE 9 9 5 5 1013.6 1013.7 0.0
23/07:30pm 10.7 8.2 6.6 76 2.0 SE 9 11 5 6 1013.4 1013.5 0.0
23/07:00pm 10.9 8.5 7.0 77 1.9 SE 9 9 5 5 1013.3 1013.4 0.0
23/06:30pm 12.0 8.8 6.7 70 2.6 SSE 13 15 7 8 1013.1 1013.2 0.0
23/06:00pm 14.1 11.7 6.9 62 3.6 S 9 11 5 6 1012.9 1012.9 0.0
23/05:30pm 15.3 12.2 7.1 58 4.2 S 13 15 7 8 1012.7 1012.7 0.0
23/05:00pm 16.4 13.3 7.1 54 4.8 SSW 13 19 7 10 1012.5 1012.5 0.0
23/04:30pm 16.9 13.6 6.4 50 5.3 SSW 13 15 7 8 1012.2 1012.3 0.0
23/04:00pm 17.1 13.8 6.6 50 5.3 S 13 22 7 12 1012.1 1012.2 0.0
23/03:30pm 16.9 13.3 5.2 46 5.8 SSE 13 17 7 9 1012.0 1012.1 0.0
23/03:00pm 16.3 13.0 6.2 51 5.1 SSE 13 19 7 10 1012.3 1012.4 0.0
23/02:30pm 16.8 12.8 6.6 51 5.2 SE 17 26 9 14 1012.6 1012.6 0.0
23/02:00pm 17.5 13.3 7.3 51 5.3 SSE 19 30 10 16 1012.9 1012.9 0.0
23/01:30pm 16.8 12.5 6.9 52 5.1 SE 19 28 10 15 1013.2 1013.3 0.0
23/01:00pm 16.6 12.7 7.0 53 4.9 SE 17 24 9 13 1013.6 1013.7 0.0
23/12:30pm 16.1 12.0 6.3 52 4.9 S 17 32 9 17 1013.9 1014.0 0.0
23/12:00pm 15.8 10.5 6.8 55 4.6 SSW 24 30 13 16 1014.3 1014.3 0.0
23/11:30am 15.4 10.6 7.2 58 4.2 S 22 32 12 17 1014.4 1014.4 0.0
23/11:00am 15.0 9.3 6.6 57 4.2 S 26 37 14 20 1014.4 1014.4 0.0
23/10:30am 14.5 8.4 6.8 60 3.9 S 28 39 15 21 1014.8 1014.9 0.0
23/10:00am 14.0 7.6 6.8 62 3.6 SSE 30 44 16 24 1015.0 1015.1 0.0
23/09:30am 13.5 6.0 6.1 61 3.6 S 35 48 19 26 1015.3 1015.4 0.0
23/09:00am 12.9 6.0 6.5 65 3.2 S 32 48 17 26 1015.2 1015.3 0.2
23/08:30am 12.6 5.6 6.2 65 3.1 S 32 41 17 22 1014.9 1015.0 0.2
23/08:00am 12.5 8.1 6.5 67 3.0 S 19 33 10 18 1014.7 1014.8 0.2
23/07:30am 10.3 8.3 6.3 76 1.9 NNW 6 7 3 4 1014.7 1014.8 0.2
23/07:00am 9.6 6.7 6.5 81 1.5 SSW 11 13 6 7 1014.6 1014.7 0.2
23/06:30am 7.7 4.3 5.7 87 0.9 SSW 13 17 7 9 1014.4 1014.4 0.2
23/06:00am 6.1 2.7 3.8 85 1.0 SSW 11 13 6 7 1014.0 1014.1 0.2
23/05:30am 7.0 4.2 5.0 87 0.9 SSE 9 13 5 7 1013.8 1013.9 0.2
23/05:00am 8.0 6.9 5.1 82 1.3 CALM 0 0 0 0 1013.6 1013.7 0.2
23/04:30am 7.8 5.6 5.1 83 1.2 WSW 6 7 3 4 1013.3 1013.4 0.2
23/04:00am 8.0 5.1 4.8 80 1.5 S 9 15 5 8 1013.2 1013.3 0.2
23/03:30am 9.4 5.9 5.4 76 1.9 S 13 20 7 11 1013.0 1013.1 0.2
23/03:00am 8.1 4.5 5.0 81 1.4 SSW 13 17 7 9 1012.7 1012.7 0.2
23/02:30am 9.2 4.6 5.4 77 1.8 S 19 26 10 14 1012.5 1012.5 0.2
23/02:00am 8.7 5.1 5.1 78 1.7 SSE 13 19 7 10 1012.6 1012.6 0.2
23/01:30am 9.6 5.8 5.8 77 1.8 S 15 20 8 11 1013.4 1013.5 0.2
23/01:00am 9.2 5.3 5.2 76 1.9 SSW 15 19 8 10 1013.7 1013.8 0.2
23/12:30am 10.5 6.7 5.9 73 2.2 S 15 20 8 11 1013.5 1013.6 0.2
23/12:00am 10.7 6.2 6.1 73 2.2 S 19 26 10 14 1013.3 1013.4 0.2
 
Date/Time
EST
Temp
°C
App
Temp
°C
Dew
Point
°C
Rel
Hum
%
Delta-T
°C
Wind Press
QNH
hPa
Press
MSL
hPa
Rain since
9am
mm
Dir  Spd
km/h
Gust
km/h
Spd
kts
Gust
kts
22/11:30pm 10.8 8.2 6.2 73 2.2 SSE 9 15 5 8 1013.2 1013.3 0.2
22/11:00pm 11.1 6.9 5.6 69 2.6 S 17 22 9 12 1013.2 1013.3 0.2
22/10:30pm 11.0 8.0 6.0 71 2.4 SSE 11 19 6 10 1013.2 1013.3 0.2
22/10:00pm 10.6 8.4 6.0 73 2.2 SE 7 9 4 5 1013.1 1013.2 0.2
22/09:30pm 11.2 8.1 5.7 69 2.6 SSE 11 13 6 7 1013.1 1013.2 0.2
22/09:00pm 10.9 7.9 6.1 72 2.3 SSE 11 15 6 8 1013.0 1013.1 0.2
22/08:30pm 10.8 7.7 5.6 70 2.5 S 11 15 6 8 1012.9 1012.9 0.2
22/08:00pm 11.4 7.1 5.3 66 2.9 S 17 22 9 12 1012.7 1012.7 0.2
22/07:30pm 11.9 5.6 5.5 65 3.1 S 28 35 15 19 1012.3 1012.4 0.2
22/07:00pm 12.3 6.7 5.5 63 3.3 S 24 32 13 17 1012.0 1012.1 0.2

Latest Capital City Observations: Canberra | Sydney | Melbourne | Brisbane | Adelaide | Perth | Hobart | Darwin

Other Formats:

Comma delimited format used in spreadsheet applications
http://www.bom.gov.au/fwo/IDN60903/IDN60903.94926.axf

JavaScript Object Notation format (JSON) in row-major order
http://www.bom.gov.au/fwo/IDN60903/IDN60903.94926.json